Time;durP1;ratioP1;P1;durP2;ratioP2;P2;SDS_P1;SDS_P2;PMS_P1;PMS_P2;Temp;Humidity;BMP_temperature;BMP_pressure;BME280_temperature;BME280_humidity;BME280_pressure;Samples;Min_cycle;Max_cycle;Signal;HPM_P1;HPM_P2
2023/06/29 00:04:00;;;;;;;4.97;4.55;;;15.50;99.90;;;16.38;70.22;98012.03;10355100;28;20226;-67
2023/06/29 00:09:04;;;;;;;4.78;4.40;;;15.50;99.90;;;16.25;70.60;98011.50;10357394;28;20686;-67
2023/06/29 00:14:08;;;;;;;4.90;4.50;;;15.30;99.90;;;16.04;71.24;98016.75;10359117;28;20230;-67
2023/06/29 00:19:14;;;;;;;4.85;4.55;;;15.20;99.90;;;15.99;71.65;98021.72;10357495;28;20600;-66
2023/06/29 00:24:18;;;;;;;4.60;4.28;;;15.10;99.90;;;15.85;72.11;98012.56;10359107;28;20222;-66
2023/06/29 00:29:22;;;;;;;4.68;4.38;;;15.00;99.90;;;15.88;72.54;98004.97;10355926;28;20254;-67
2023/06/29 00:34:25;;;;;;;4.75;4.35;;;15.00;99.90;;;15.87;72.71;98003.22;10360139;28;20234;-67
2023/06/29 00:39:28;;;;;;;4.93;4.57;;;15.00;99.90;;;15.86;72.66;98001.47;10354672;28;20577;-66
2023/06/29 00:44:33;;;;;;;5.03;4.63;;;14.90;99.90;;;15.85;73.26;98000.59;10357814;28;20218;-67
2023/06/29 00:49:36;;;;;;;4.72;4.43;;;14.90;99.90;;;15.68;74.20;97997.38;10359269;28;20230;-66
2023/06/29 00:54:39;;;;;;;4.93;4.53;;;14.80;99.90;;;15.53;74.06;97987.28;10353037;28;20623;-67
2023/06/29 00:59:44;;;;;;;4.80;4.38;;;14.60;99.90;;;15.64;73.88;97985.13;10357321;28;20605;-66
2023/06/29 01:04:47;;;;;;;4.90;4.50;;;14.70;99.90;;;15.50;74.41;97986.28;10353507;28;20234;-66
2023/06/29 01:09:53;;;;;;;4.70;4.30;;;14.60;99.90;;;15.43;75.04;97979.13;10355525;28;20241;-68
2023/06/29 01:14:58;;;;;;;4.68;4.32;;;14.50;99.90;;;15.44;75.07;97975.72;10355725;28;20226;-67
2023/06/29 01:20:03;;;;;;;5.15;4.75;;;14.50;99.90;;;15.48;74.40;97967.28;10355597;28;20238;-67
2023/06/29 01:25:08;;;;;;;5.47;4.97;;;14.60;99.90;;;15.44;74.27;97971.44;10355813;28;20230;-68
2023/06/29 01:30:13;;;;;;;6.00;4.90;;;14.50;99.90;;;15.40;74.49;97963.56;10353883;28;20322;-67
2023/06/29 01:35:16;;;;;;;4.97;4.63;;;14.50;99.90;;;15.28;75.08;97962.25;10354670;28;20258;-68
2023/06/29 01:40:28;;;;;;;4.65;4.35;;;14.40;99.90;;;15.24;75.93;97969.78;10353975;28;20229;-68
2023/06/29 01:45:32;;;;;;;4.85;4.45;;;14.30;99.90;;;15.19;76.26;97964.44;10356193;28;20240;-67
2023/06/29 01:50:36;;;;;;;5.43;5.03;;;14.30;99.90;;;15.14;76.35;97959.91;10352088;28;20244;-66
2023/06/29 01:55:41;;;;;;;5.25;4.85;;;14.20;99.90;;;15.06;76.44;97957.06;10352933;28;20241;-66
2023/06/29 02:00:44;;;;;;;5.30;4.95;;;14.20;99.90;;;14.99;76.58;97960.16;10354397;28;20222;-66
2023/06/29 02:05:47;;;;;;;5.80;5.30;;;14.10;99.90;;;14.85;77.21;97962.16;10354400;28;20228;-67
2023/06/29 02:10:52;;;;;;;5.20;4.70;;;14.00;99.90;;;14.70;78.44;97957.25;10357899;28;20246;-67
2023/06/29 02:15:55;;;;;;;5.90;5.30;;;13.90;99.90;;;14.68;78.31;97951.19;10353922;28;20549;-67
2023/06/29 02:20:58;;;;;;;5.78;5.38;;;13.90;99.90;;;14.56;79.31;97953.22;10353012;28;20603;-67
2023/06/29 02:26:03;;;;;;;5.53;5.13;;;13.70;99.90;;;14.57;78.85;97947.28;10353974;28;20226;-67
2023/06/29 02:31:06;;;;;;;5.82;5.43;;;13.70;99.90;;;14.63;79.30;97945.84;10359956;28;20245;-67
2023/06/29 02:36:10;;;;;;;5.70;5.30;;;13.80;99.90;;;14.50;79.79;97938.38;10364547;28;20230;-66
2023/06/29 02:41:14;;;;;;;5.43;5.03;;;13.70;99.90;;;14.54;78.88;97939.44;10361341;28;20226;-66
2023/06/29 02:46:18;;;;;;;5.95;5.55;;;13.60;99.90;;;14.48;80.06;97933.97;10357504;28;20305;-66
2023/06/29 02:51:21;;;;;;;6.00;5.50;;;13.70;99.90;;;14.48;79.79;97928.81;10361620;28;20706;-67
2023/06/29 02:56:26;;;;;;;6.20;5.75;;;13.60;99.90;;;14.46;80.22;97930.47;10360436;28;20620;-64
2023/06/29 03:01:29;;;;;;;6.07;5.57;;;13.60;99.90;;;14.48;79.39;97919.44;10361091;28;20222;-66
2023/06/29 03:06:32;;;;;;;6.05;5.47;;;13.60;99.90;;;14.40;79.55;97916.53;10362800;28;20289;-64
2023/06/29 03:11:37;;;;;;;6.88;6.28;;;13.50;99.90;;;14.30;80.53;97914.38;10358163;28;20222;-66
2023/06/29 03:16:40;;;;;;;6.30;5.80;;;13.40;99.90;;;14.23;81.38;97919.19;10356941;28;20253;-67
2023/06/29 03:21:43;;;;;;;6.20;5.80;;;13.40;99.90;;;14.21;81.38;97919.13;10361563;28;20325;-66
2023/06/29 03:26:48;;;;;;;6.38;5.88;;;13.30;99.90;;;14.23;81.28;97922.63;10363115;28;20235;-67
2023/06/29 03:31:51;;;;;;;6.63;6.13;;;13.40;99.90;;;14.12;81.69;97923.88;10356507;28;20225;-65
2023/06/29 03:36:54;;;;;;;6.20;5.70;;;13.30;99.90;;;14.12;81.96;97923.88;10361969;28;20250;-67
2023/06/29 03:41:59;;;;;;;6.13;5.63;;;13.20;99.90;;;14.19;81.22;97920.72;10361138;28;20229;-67
2023/06/29 03:47:02;;;;;;;6.53;5.97;;;13.40;99.90;;;14.26;80.82;97932.19;10357633;28;20261;-65
2023/06/29 03:52:07;;;;;;;6.40;5.90;;;13.40;99.90;;;14.24;81.28;97924.38;10356546;28;20844;-67
2023/06/29 03:57:11;;;;;;;5.78;5.35;;;13.40;99.90;;;14.25;80.67;97926.16;10362192;28;20246;-67
2023/06/29 04:02:14;;;;;;;6.25;5.78;;;13.40;99.90;;;14.24;80.69;97914.09;10355557;28;20234;-66
2023/06/29 04:07:17;;;;;;;6.05;5.55;;;13.30;99.90;;;14.28;81.22;97916.00;10361022;28;20224;-66
2023/06/29 04:12:22;;;;;;;6.13;5.63;;;13.30;99.90;;;14.31;80.05;97918.72;10355325;28;20229;-66
2023/06/29 04:17:25;;;;;;;5.85;5.32;;;13.30;99.90;;;14.35;80.29;97917.16;10356186;28;20717;-67
2023/06/29 04:22:28;;;;;;;5.80;5.30;;;13.30;99.90;;;14.39;80.73;97909.66;10353034;28;20312;-66
2023/06/29 04:27:34;;;;;;;6.82;6.28;;;13.40;99.90;;;14.13;81.23;97917.91;10352959;28;20222;-67
2023/06/29 04:32:37;;;;;;;6.50;5.95;;;13.20;99.90;;;13.85;83.52;97921.81;10350603;28;20309;-68
2023/06/29 04:37:41;;;;;;;6.25;5.85;;;13.10;99.90;;;14.04;81.96;97910.66;10356795;28;20222;-66
2023/06/29 04:42:46;;;;;;;6.90;6.40;;;13.20;99.90;;;14.27;81.15;97903.94;10360722;28;20309;-68
2023/06/29 04:47:50;;;;;;;6.05;5.65;;;13.30;99.90;;;15.12;79.66;97898.06;10359719;28;20234;-67
2023/06/29 04:52:54;;;;;;;6.00;5.60;;;14.60;99.90;;;16.87;71.82;97902.78;10350902;28;20229;-67
2023/06/29 04:57:59;;;;;;;5.57;5.22;;;16.20;99.90;;;18.56;64.39;97888.81;10348733;28;22540;-64
2023/06/29 05:03:02;;;;;;;5.43;4.95;;;17.80;99.90;;;19.70;57.83;97889.88;10356937;28;20246;-65
2023/06/29 05:08:06;;;;;;;5.22;4.82;;;18.60;99.20;;;20.82;53.99;97884.25;10355790;28;20710;-66
2023/06/29 05:13:10;;;;;;;5.75;4.85;;;19.20;97.60;;;21.42;51.85;97886.09;10356396;28;20276;-66
2023/06/29 05:18:14;;;;;;;4.68;4.30;;;19.80;95.90;;;21.75;50.39;97887.44;10344028;28;20668;-66
2023/06/29 05:23:17;;;;;;;5.70;5.30;;;20.00;94.70;;;22.28;49.08;97882.03;10344832;28;20222;-67
2023/06/29 05:28:21;;;;;;;5.40;4.90;;;20.20;94.00;;;22.77;47.79;97885.13;10343313;28;20230;-67
2023/06/29 05:33:24;;;;;;;5.20;4.80;;;20.50;93.20;;;22.53;47.47;97880.56;10347009;28;20227;-66
2023/06/29 05:38:29;;;;;;;4.95;4.57;;;20.80;92.20;;;22.94;46.66;97877.44;10349809;28;20242;-66
2023/06/29 05:43:34;;;;;;;4.97;4.57;;;20.90;91.70;;;23.94;44.12;97875.53;10349698;28;20615;-66
2023/06/29 05:48:37;;;;;;;4.90;4.47;;;21.70;90.20;;;24.43;43.83;97881.81;10355643;28;20230;-66
2023/06/29 05:53:40;;;;;;;4.90;4.53;;;22.30;89.20;;;24.43;43.12;97867.88;10346170;28;20226;-66
2023/06/29 05:58:44;;;;;;;5.20;4.70;;;22.30;87.80;;;24.79;42.15;97874.06;10357127;28;20230;-66
2023/06/29 06:03:47;;;;;;;4.45;3.90;;;22.70;86.00;;;25.04;42.51;97872.28;10348798;28;20229;-66
2023/06/29 06:08:51;;;;;;;5.15;3.97;;;22.70;86.20;;;25.73;41.07;97872.25;10349265;28;20237;-66
2023/06/29 06:13:55;;;;;;;4.13;3.83;;;23.20;84.60;;;26.13;40.22;97866.88;10351513;28;20234;-67
2023/06/29 06:18:58;;;;;;;4.15;3.80;;;23.50;84.70;;;26.79;37.98;97880.50;10357017;28;20226;-67
2023/06/29 06:24:01;;;;;;;4.40;4.00;;;23.80;81.80;;;27.00;38.45;97870.72;10354308;28;20229;-67
2023/06/29 06:29:06;;;;;;;5.65;3.88;;;24.00;81.50;;;27.20;37.39;97870.56;10353653;28;20249;-67
2023/06/29 06:34:09;;;;;;;4.00;3.70;;;24.20;80.50;;;27.60;36.82;97865.78;10346950;28;20241;-67
2023/06/29 06:39:12;;;;;;;3.63;3.40;;;24.70;78.60;;;27.91;36.63;97863.72;10351369;28;20233;-67
2023/06/29 06:44:17;;;;;;;3.92;3.60;;;25.10;77.80;;;28.39;34.91;97865.72;10345567;28;20222;-67
2023/06/29 06:49:20;;;;;;;4.20;3.60;;;25.30;76.50;;;29.09;34.65;97871.72;10356389;28;20237;-67
2023/06/29 06:54:23;;;;;;;3.60;3.30;;;25.90;75.10;;;29.38;33.49;97863.31;10354006;28;20233;-67
2023/06/29 06:59:27;;;;;;;4.18;3.35;;;26.40;73.60;;;30.06;32.90;97847.06;10353532;28;20237;-68
2023/06/29 07:04:30;;;;;;;3.75;2.70;;;26.90;72.70;;;30.23;31.63;97849.38;10355015;28;20232;-67
2023/06/29 07:09:34;;;;;;;3.08;2.47;;;27.60;69.30;;;30.77;30.56;97849.03;10353217;28;20226;-67
2023/06/29 07:14:38;;;;;;;3.00;2.70;;;27.70;67.80;;;30.92;30.55;97843.38;10350806;28;20733;-67
2023/06/29 07:19:41;;;;;;;4.25;3.05;;;28.30;67.00;;;31.40;30.66;97837.78;10358340;28;20230;-67
2023/06/29 07:24:47;;;;;;;3.65;3.35;;;28.50;67.00;;;31.49;29.90;97835.81;10355640;28;20229;-67
2023/06/29 07:29:52;;;;;;;3.42;2.80;;;28.50;66.60;;;31.58;30.39;97831.13;10361953;28;20705;-67
2023/06/29 07:34:56;;;;;;;3.83;2.40;;;28.90;65.90;;;32.30;29.21;97830.81;10357147;28;20276;-68
2023/06/29 07:39:59;;;;;;;2.90;2.60;;;29.60;64.80;;;32.03;29.49;97814.88;10354026;28;20229;-67
2023/06/29 07:45:05;;;;;;;2.95;2.55;;;29.60;63.70;;;31.97;29.37;97811.56;10354537;28;20601;-67
2023/06/29 07:50:10;;;;;;;2.95;2.53;;;29.50;63.00;;;32.13;28.82;97807.53;10359042;28;20234;-68
2023/06/29 07:55:14;;;;;;;7.82;2.85;;;29.70;62.40;;;32.33;28.69;97806.06;10356028;28;20230;-67
2023/06/29 08:00:21;;;;;;;2.60;2.40;;;29.80;62.40;;;33.53;27.36;97800.34;10354177;28;20237;-67
2023/06/29 08:05:25;;;;;;;2.70;2.50;;;30.50;60.70;;;34.14;26.36;97798.09;10358061;28;20347;-68
2023/06/29 08:10:31;;;;;;;3.25;2.33;;;30.80;59.60;;;34.29;26.27;97784.19;10355932;28;20218;-68
2023/06/29 08:15:35;;;;;;;4.75;2.47;;;31.50;59.30;;;33.59;25.48;97790.38;10354318;28;20234;-68
2023/06/29 08:20:38;;;;;;;2.47;2.28;;;31.20;58.00;;;34.41;25.02;97785.50;10357595;28;20234;-68
2023/06/29 08:25:42;;;;;;;3.63;2.00;;;31.30;58.00;;;34.25;25.37;97787.03;10355925;28;20716;-68
2023/06/29 08:30:46;;;;;;;2.67;2.03;;;31.40;57.00;;;33.29;25.62;97780.84;10357862;28;20713;-68
2023/06/29 08:35:50;;;;;;;3.38;2.00;;;31.00;57.50;;;33.28;25.30;97777.34;10353365;28;20230;-68
2023/06/29 08:40:53;;;;;;;2.33;1.80;;;31.00;56.70;;;32.90;25.48;97773.34;10348744;28;20230;-68
2023/06/29 08:45:57;;;;;;;3.42;2.00;;;30.60;55.90;;;32.84;25.54;97771.75;10351034;28;20740;-68
2023/06/29 08:51:04;;;;;;;2.13;1.92;;;30.90;55.10;;;32.30;26.50;97772.63;10348014;28;20233;-68
2023/06/29 08:56:08;;;;;;;2.90;2.25;;;30.40;56.10;;;32.52;26.02;97765.75;10356551;28;20221;-68
2023/06/29 09:01:13;;;;;;;3.65;2.20;;;30.80;55.50;;;32.47;25.91;97759.75;10347338;28;20377;-67
2023/06/29 09:06:16;;;;;;;2.42;2.22;;;30.60;55.50;;;32.08;26.37;97756.56;10355724;28;20686;-67
2023/06/29 09:11:20;;;;;;;3.35;2.22;;;30.50;56.30;;;31.64;26.87;97756.94;10347316;28;20226;-67
2023/06/29 09:16:29;;;;;;;3.33;2.20;;;29.80;56.90;;;31.21;27.83;97757.25;10352356;28;20271;-67
2023/06/29 09:21:33;;;;;;;2.97;2.10;;;29.60;57.60;;;30.81;27.79;97763.59;10347203;28;20244;-68
2023/06/29 09:26:38;;;;;;;2.88;2.15;;;29.10;57.80;;;30.71;28.11;97751.53;10349560;28;20229;-68
2023/06/29 09:31:55;;;;;;;2.40;1.95;;;29.20;57.60;;;31.28;27.98;97743.00;10349803;28;20236;-67
2023/06/29 09:36:58;;;;;;;2.58;2.10;;;30.00;57.10;;;31.70;26.75;97742.69;10346620;28;21031;-67
2023/06/29 09:42:01;;;;;;;2.92;2.20;;;30.30;55.70;;;31.68;27.05;97747.16;10353929;28;20233;-67
2023/06/29 09:47:07;;;;;;;3.72;2.10;;;30.30;55.90;;;31.90;26.68;97746.50;10353159;28;20712;-67
2023/06/29 09:52:13;;;;;;;2.33;2.10;;;30.80;55.20;;;32.15;27.17;97744.00;10350510;28;20222;-67
2023/06/29 09:57:18;;;;;;;2.75;2.13;;;31.10;55.50;;;31.71;27.31;97740.91;10345888;28;20226;-67
2023/06/29 10:02:22;;;;;;;2.22;2.03;;;30.80;55.50;;;32.30;27.09;97736.44;10351182;28;20226;-67
2023/06/29 10:07:26;;;;;;;2.47;1.77;;;31.30;55.30;;;32.22;26.82;97730.56;10341019;28;20245;-68
2023/06/29 10:12:30;;;;;;;2.60;2.00;;;31.00;55.50;;;32.30;25.88;97732.94;10345326;28;20279;-67
2023/06/29 10:17:42;;;;;;;2.78;1.95;;;30.90;54.80;;;32.15;27.11;97720.19;10356498;28;20240;-67
2023/06/29 10:22:46;;;;;;;2.45;2.08;;;30.70;55.70;;;31.90;26.92;97720.06;10349491;28;20284;-67
2023/06/29 10:27:54;;;;;;;2.22;2.03;;;30.50;55.60;;;32.09;26.80;97718.63;10351343;28;20603;-67
2023/06/29 10:32:59;;;;;;;2.00;1.73;;;30.80;55.50;;;32.01;26.99;97718.00;10355294;28;20731;-67
2023/06/29 10:38:11;;;;;;;2.95;2.15;;;30.80;55.50;;;32.00;26.50;97701.25;10355760;28;20714;-68
2023/06/29 10:43:14;;;;;;;3.03;2.05;;;30.80;54.90;;;32.06;26.24;97700.19;10352646;28;20717;-67
2023/06/29 10:48:19;;;;;;;1.90;1.80;;;31.20;54.40;;;31.21;27.62;97691.22;10359843;28;20573;-67
2023/06/29 10:53:41;;;;;;;3.90;2.35;;;30.10;56.00;;;31.72;27.64;97690.63;10359360;28;20328;-67
2023/06/29 10:58:44;;;;;;;2.30;2.00;;;30.70;56.00;;;31.77;27.65;97696.66;10348013;28;20226;-67
2023/06/29 11:03:48;;;;;;;2.92;2.28;;;30.60;56.10;;;31.68;27.51;97685.47;10354720;28;20225;-65
2023/06/29 11:08:51;;;;;;;3.00;2.55;;;30.40;56.40;;;31.86;27.52;97688.44;10350069;28;20225;-65
2023/06/29 11:13:57;;;;;;;4.65;2.88;;;30.60;55.70;;;31.68;28.27;97678.44;10358342;28;20229;-65
2023/06/29 11:19:03;;;;;;;3.47;2.63;;;30.50;57.10;;;31.71;27.94;97683.63;10351070;28;20250;-65
2023/06/29 11:24:06;;;;;;;3.00;2.40;;;30.30;56.90;;;31.79;27.23;97681.63;10360102;28;20226;-64
2023/06/29 11:29:09;;;;;;;2.38;2.10;;;30.50;56.00;;;31.49;27.69;97671.97;10359530;28;20229;-65
2023/06/29 11:34:15;;;;;;;2.50;2.30;;;30.20;56.40;;;31.01;28.76;97661.88;10362189;28;20226;-65
2023/06/29 11:39:18;;;;;;;3.00;2.53;;;29.60;57.80;;;31.06;28.87;97657.34;10357572;28;20232;-65
2023/06/29 11:44:23;;;;;;;2.90;2.70;;;29.60;58.00;;;30.55;29.53;97652.53;10359672;28;20228;-64
2023/06/29 11:49:28;;;;;;;3.67;2.70;;;29.60;57.50;;;30.45;29.13;97650.16;10356919;28;20506;-65
2023/06/29 11:54:32;;;;;;;4.15;2.60;;;29.30;57.90;;;30.33;30.08;97639.88;10356733;28;20222;-65
2023/06/29 11:59:39;;;;;;;2.88;2.65;;;29.30;58.40;;;30.68;30.11;97635.47;10358500;28;20705;-65
2023/06/29 12:04:57;;;;;;;3.25;2.95;;;29.70;58.60;;;30.95;29.34;97633.88;10354031;28;20218;-65
2023/06/29 12:10:03;;;;;;;3.25;3.05;;;30.00;57.80;;;31.24;29.28;97622.44;10355929;28;20279;-65
2023/06/29 12:15:14;;;;;;;3.33;2.80;;;30.10;57.70;;;31.14;29.22;97619.22;10355564;28;20706;-64
2023/06/29 12:20:21;;;;;;;3.10;2.63;;;30.00;57.80;;;31.17;28.77;97615.63;10357359;28;20222;-65
2023/06/29 12:25:25;;;;;;;3.35;3.08;;;30.10;57.30;;;31.21;28.59;97619.91;10356092;28;20606;-65
2023/06/29 12:30:28;;;;;;;3.63;2.53;;;30.30;57.00;;;30.84;29.88;97605.13;10347065;28;20230;-65
2023/06/29 12:35:32;;;;;;;3.63;3.13;;;29.80;58.30;;;30.88;29.42;97598.88;10358435;28;20233;-65
2023/06/29 12:40:35;;;;;;;3.97;3.40;;;29.80;57.70;;;30.96;29.51;97588.94;10348320;28;20230;-65
2023/06/29 12:45:39;;;;;;;3.00;2.80;;;29.90;57.90;;;30.77;29.87;97587.72;10353198;28;20226;-65
2023/06/29 12:50:44;;;;;;;3.60;3.30;;;29.90;57.80;;;30.36;30.42;97581.81;10354364;28;20218;-65
2023/06/29 12:55:47;;;;;;;3.78;3.40;;;29.50;58.50;;;30.47;30.32;97585.00;10347354;28;20312;-65
2023/06/29 13:00:51;;;;;;;3.90;3.47;;;29.60;58.20;;;30.29;31.06;97570.53;10352122;28;20232;-65
2023/06/29 13:05:56;;;;;;;4.30;3.65;;;29.40;59.00;;;30.22;30.42;97576.88;10350320;28;20233;-67
2023/06/29 13:10:59;;;;;;;4.30;3.92;;;29.30;58.70;;;30.33;30.01;97576.56;10351565;28;20642;-67
2023/06/29 13:16:02;;;;;;;4.00;3.58;;;29.40;58.10;;;30.80;30.16;97584.16;10351519;28;20226;-68
2023/06/29 13:21:06;;;;;;;3.78;3.10;;;29.80;58.50;;;31.11;29.41;97585.00;10349967;28;20230;-67
2023/06/29 13:26:10;;;;;;;5.07;4.57;;;30.00;58.00;;;31.73;29.05;97578.69;10350091;28;20234;-67
2023/06/29 13:31:13;;;;;;;5.32;4.82;;;30.60;57.60;;;31.65;29.25;97575.44;10360588;28;20230;-67
2023/06/29 13:36:17;;;;;;;6.03;5.43;;;30.70;57.80;;;31.85;28.45;97562.44;10358814;28;20229;-67
2023/06/29 13:41:36;;;;;;;5.60;5.10;;;30.60;56.90;;;31.81;28.48;97568.72;10361676;28;20245;-67
2023/06/29 13:46:40;;;;;;;6.20;5.60;;;30.70;57.20;;;31.89;29.33;97562.34;10362075;28;20255;-67
2023/06/29 13:51:45;;;;;;;5.65;5.15;;;30.70;57.90;;;31.50;28.74;97560.06;10356212;28;20232;-67
2023/06/29 13:56:52;;;;;;;6.32;5.60;;;30.30;57.40;;;31.67;28.67;97559.53;10361487;28;20800;-67
2023/06/29 14:01:55;;;;;;;6.70;6.10;;;30.30;57.30;;;31.89;28.14;97549.13;10362349;28;20656;-67
2023/06/29 14:07:00;;;;;;;5.97;5.47;;;30.60;56.60;;;31.55;29.11;97548.44;10360778;28;20238;-67
2023/06/29 14:12:04;;;;;;;7.22;6.15;;;30.30;57.70;;;31.81;28.87;97542.28;10361128;28;20236;-67
2023/06/29 14:17:08;;;;;;;6.53;5.93;;;30.50;57.60;;;31.44;29.56;97553.19;10360559;28;20690;-67
2023/06/29 14:22:12;;;;;;;6.60;5.90;;;30.20;58.00;;;31.27;29.61;97553.69;10360045;28;20238;-67
2023/06/29 14:27:17;;;;;;;6.03;4.53;;;30.10;58.20;;;30.80;31.28;97561.25;10368554;28;20280;-67
2023/06/29 14:32:20;;;;;;;4.45;3.95;;;29.70;60.00;;;30.44;32.24;97561.31;10368574;28;20757;-67
2023/06/29 14:37:28;;;;;;;3.83;3.45;;;29.30;60.80;;;30.15;32.70;97558.59;10363259;28;20646;-67
2023/06/29 14:42:32;;;;;;;4.70;3.60;;;29.00;62.50;;;29.92;33.12;97544.22;10361620;28;20221;-67
2023/06/29 14:47:35;;;;;;;4.10;3.80;;;28.80;62.80;;;29.58;33.49;97550.28;10365322;28;20297;-69
2023/06/29 14:52:40;;;;;;;4.63;3.42;;;28.50;63.60;;;29.56;33.63;97546.84;10365609;28;20786;-67
2023/06/29 14:57:43;;;;;;;4.38;3.45;;;28.50;63.70;;;29.43;33.87;97548.03;10363084;28;20260;-67
2023/06/29 15:02:46;;;;;;;3.83;3.45;;;28.40;63.70;;;29.36;33.89;97554.31;10366324;28;20681;-67
2023/06/29 15:07:51;;;;;;;4.15;3.72;;;28.30;63.80;;;29.39;34.50;97543.75;10365968;28;20238;-67
2023/06/29 15:12:54;;;;;;;4.63;4.20;;;28.30;64.00;;;29.50;34.24;97546.97;10362402;28;20312;-67
2023/06/29 15:17:57;;;;;;;4.10;3.70;;;28.40;63.60;;;29.72;33.64;97544.72;10358835;28;20266;-67
2023/06/29 15:23:01;;;;;;;5.05;4.32;;;28.70;63.50;;;29.88;33.51;97539.94;10366075;28;20738;-67
2023/06/29 15:28:05;;;;;;;4.45;4.05;;;28.80;63.30;;;29.68;33.41;97535.16;10365280;28;20261;-67
2023/06/29 15:33:08;;;;;;;4.75;4.30;;;28.60;63.20;;;29.43;34.43;97540.13;10364363;28;20222;-67
2023/06/29 15:38:13;;;;;;;5.10;4.07;;;28.40;63.80;;;29.34;34.46;97532.44;10364222;28;20246;-67
2023/06/29 15:43:16;;;;;;;4.18;3.80;;;28.30;63.90;;;29.32;34.02;97528.97;10362328;28;20232;-67
2023/06/29 15:48:20;;;;;;;4.60;4.03;;;28.20;64.00;;;29.10;34.24;97521.56;10359977;28;20233;-67
2023/06/29 15:53:24;;;;;;;4.18;3.78;;;28.10;64.80;;;28.91;35.26;97510.53;10364335;28;20588;-67
2023/06/29 15:58:28;;;;;;;4.63;4.15;;;27.90;64.90;;;28.93;34.80;97510.50;10365303;28;20233;-66
2023/06/29 16:03:31;;;;;;;4.97;4.47;;;27.90;65.30;;;29.03;34.36;97509.44;10365874;28;20848;-67
2023/06/29 16:08:35;;;;;;;4.15;3.72;;;28.00;64.50;;;29.19;35.48;97510.81;10360872;28;20732;-67
2023/06/29 16:13:39;;;;;;;4.00;3.70;;;28.10;65.40;;;29.20;36.11;97511.69;10367017;28;20225;-67
2023/06/29 16:18:43;;;;;;;3.85;3.55;;;28.10;66.50;;;28.91;35.46;97505.28;10367054;28;20230;-67
2023/06/29 16:23:47;;;;;;;4.30;3.80;;;27.80;66.30;;;28.92;36.51;97499.09;10361735;28;20502;-67
2023/06/29 16:28:50;;;;;;;5.25;3.80;;;27.90;67.20;;;28.98;36.13;97498.97;10364073;28;20236;-67
2023/06/29 16:33:54;;;;;;;4.15;3.75;;;27.90;67.40;;;29.19;35.84;97502.94;10363849;28;20713;-67
2023/06/29 16:38:58;;;;;;;4.07;3.65;;;28.00;66.60;;;28.81;35.87;97503.72;10361960;28;20227;-67
2023/06/29 16:44:01;;;;;;;4.90;3.85;;;27.80;67.00;;;28.27;37.42;97501.28;10364457;28;20462;-67
2023/06/29 16:49:05;;;;;;;3.95;3.60;;;27.40;68.10;;;28.20;37.76;97507.59;10361314;28;21009;-67
2023/06/29 16:54:09;;;;;;;4.30;4.00;;;27.20;68.60;;;28.08;37.97;97506.06;10361930;28;20773;-67
2023/06/29 16:59:12;;;;;;;5.47;3.58;;;27.00;69.40;;;27.95;38.14;97508.03;10355862;28;20640;-67
2023/06/29 17:04:15;;;;;;;4.13;3.72;;;26.90;69.80;;;27.87;38.54;97511.69;10358960;28;20229;-67
2023/06/29 17:09:20;;;;;;;4.97;4.03;;;26.90;70.10;;;27.87;38.83;97516.94;10353192;28;20222;-67
2023/06/29 17:14:23;;;;;;;4.22;3.83;;;26.80;70.30;;;27.84;38.55;97510.88;10362234;28;20229;-67
2023/06/29 17:19:26;;;;;;;5.50;3.90;;;26.90;70.80;;;27.74;39.08;97516.25;10356935;28;20237;-67
2023/06/29 17:24:30;;;;;;;4.22;3.83;;;26.80;70.80;;;27.72;39.06;97508.38;10355558;28;20238;-67
2023/06/29 17:29:34;;;;;;;4.85;3.72;;;26.70;71.00;;;27.64;39.02;97515.53;10359051;28;20233;-67
2023/06/29 17:34:37;;;;;;;5.75;3.80;;;26.60;71.40;;;27.44;39.58;97517.59;10361262;28;20225;-67
2023/06/29 17:39:43;;;;;;;4.32;3.50;;;26.50;71.60;;;27.35;39.89;97524.72;10350003;28;20672;-66
2023/06/29 17:44:46;;;;;;;4.30;3.90;;;26.30;71.60;;;27.14;40.31;97522.41;10349256;28;20230;-67
2023/06/29 17:49:50;;;;;;;3.92;3.63;;;26.20;72.20;;;27.10;40.25;97528.56;10349256;28;20234;-67
2023/06/29 17:54:54;;;;;;;4.10;3.50;;;26.10;72.40;;;27.08;40.35;97526.00;10349275;28;20314;-66
2023/06/29 17:59:57;;;;;;;5.15;3.90;;;26.20;72.90;;;27.12;40.69;97534.69;10344420;28;20237;-66
2023/06/29 18:05:00;;;;;;;4.30;3.83;;;26.20;72.90;;;27.10;40.50;97533.81;10352456;28;20256;-66
2023/06/29 18:10:07;;;;;;;4.40;3.72;;;26.10;72.70;;;27.11;40.44;97540.81;10351850;28;20226;-67
2023/06/29 18:15:12;;;;;;;4.22;3.80;;;26.10;72.60;;;27.06;40.53;97547.88;10353587;28;20673;-66
2023/06/29 18:20:15;;;;;;;4.38;3.97;;;26.10;72.50;;;27.00;40.89;97547.97;10348630;28;20225;-67
2023/06/29 18:25:20;;;;;;;4.72;4.13;;;26.00;73.20;;;26.94;40.78;97541.91;10345004;28;20276;-67
2023/06/29 18:30:23;;;;;;;4.82;4.35;;;26.00;73.10;;;26.87;40.72;97552.50;10352744;28;21016;-67
2023/06/29 18:35:26;;;;;;;6.07;4.43;;;25.90;73.20;;;26.72;41.33;97545.69;10351153;28;20226;-66
2023/06/29 18:40:30;;;;;;;4.88;4.22;;;25.80;74.10;;;26.68;41.21;97549.25;10344913;28;20227;-67
2023/06/29 18:45:34;;;;;;;4.60;4.20;;;25.70;73.70;;;26.62;41.25;97549.34;10346400;28;20663;-66
2023/06/29 18:50:37;;;;;;;4.40;4.00;;;25.60;74.00;;;26.40;41.21;97557.38;10348154;28;20226;-66
2023/06/29 18:55:41;;;;;;;5.70;4.65;;;25.40;74.40;;;26.31;41.67;97551.38;10346572;28;20234;-66
2023/06/29 19:00:44;;;;;;;4.70;4.13;;;25.30;74.60;;;26.20;41.88;97546.25;10349524;28;20226;-66
2023/06/29 19:05:48;;;;;;;4.70;3.72;;;25.20;74.80;;;26.14;42.57;97554.19;10346432;28;20660;-66
2023/06/29 19:10:53;;;;;;;5.03;4.30;;;25.10;75.10;;;26.06;42.70;97554.25;10342838;28;20222;-65
2023/06/29 19:15:56;;;;;;;4.88;4.22;;;25.10;76.00;;;25.94;42.63;97552.59;10351268;28;20767;-65
2023/06/29 19:21:01;;;;;;;5.07;4.53;;;25.00;76.00;;;25.89;43.03;97557.00;10352868;28;20865;-65
2023/06/29 19:26:05;;;;;;;5.55;3.75;;;24.90;77.00;;;25.82;44.02;97552.69;10353935;28;20735;-66
2023/06/29 19:31:08;;;;;;;4.28;3.92;;;24.80;77.60;;;25.76;43.97;97556.22;10359601;28;20735;-65
2023/06/29 19:36:12;;;;;;;5.55;4.63;;;24.70;78.40;;;25.65;44.04;97559.81;10355901;28;20226;-65
2023/06/29 19:41:17;;;;;;;5.03;4.47;;;24.60;78.30;;;25.59;44.85;97572.06;10355409;28;20578;-66
2023/06/29 19:46:21;;;;;;;5.90;4.97;;;24.60;80.00;;;25.50;45.28;97569.53;10358072;28;20728;-65
2023/06/29 19:51:24;;;;;;;5.10;4.60;;;24.50;80.00;;;25.41;45.63;97569.59;10354344;28;20402;-66
2023/06/29 19:56:28;;;;;;;6.10;4.75;;;24.40;81.50;;;25.36;46.58;97574.84;10352445;28;20236;-65
2023/06/29 20:01:32;;;;;;;5.25;4.57;;;24.30;82.80;;;25.32;47.63;97573.09;10356061;28;20230;-65
2023/06/29 20:06:35;;;;;;;5.07;4.60;;;24.30;84.80;;;25.19;48.60;97575.84;10359699;28;20240;-65
2023/06/29 20:11:40;;;;;;;5.35;4.85;;;24.20;85.80;;;25.04;48.71;97579.34;10356422;28;20222;-66
2023/06/29 20:16:43;;;;;;;5.82;4.75;;;24.00;86.10;;;24.95;49.24;97582.88;10359819;28;20618;-65
2023/06/29 20:21:46;;;;;;;5.05;4.55;;;23.90;87.30;;;24.81;50.13;97584.66;10351475;28;20222;-66
2023/06/29 20:26:51;;;;;;;5.15;4.65;;;23.80;88.40;;;24.64;50.43;97576.91;10349822;28;20579;-65
2023/06/29 20:31:54;;;;;;;5.82;5.18;;;23.60;88.50;;;24.68;50.18;97571.66;10351457;28;20729;-65
2023/06/29 20:36:57;;;;;;;5.80;4.38;;;23.60;88.70;;;24.60;50.49;97570.81;10348352;28;20230;-65
2023/06/29 20:42:02;;;;;;;4.95;4.50;;;23.50;89.50;;;24.44;51.34;97577.84;10344173;28;20237;-65
2023/06/29 20:47:05;;;;;;;4.60;4.30;;;23.40;90.30;;;24.29;51.78;97575.22;10343037;28;20234;-66
2023/06/29 20:52:09;;;;;;;6.15;5.13;;;23.30;90.90;;;24.31;52.29;97573.47;10345738;28;20226;-64
2023/06/29 20:57:21;;;;;;;5.40;4.97;;;23.20;91.20;;;24.19;53.02;97570.91;10332525;28;20226;-65
2023/06/29 21:02:25;;;;;;;5.15;4.65;;;23.10;91.80;;;24.06;53.15;97572.63;10340040;28;20236;-64
2023/06/29 21:07:28;;;;;;;5.43;4.80;;;23.00;92.10;;;23.84;54.28;97582.25;10344233;28;20230;-66